Create Custom Reports and Graphics: Custom Report

Latest Observations

Map

15 Minute Data

Lodi West

Latest Observations

15 Minute Data | America/Los_Angeles
as of 11/20/19 11:21 PM PST
Station Date Time Temp (°F) Dew Pt (°F) RH (%) Wind Dir (°) Wind Spd (mph) Wind Gust (mph) Latest Rain (In) Daily Rain (In) Daily Min Temp (°F) Daily Max Temp (°F)
Utter - Wilson 11/20/19 2315 51.7   4.9 44.4   0.5 76   17 E | 101 4.3   2.2 6.5   3.2 0.00 0.00 43.5   2.9 72.3   1.6
Clarksburg (CLK) 11/20/19 2315 47.1   1.0 42.7   2.6 85   5 E | 86 2.9   1.6 4.1   0.4 0.00 0.00 44.7   0.4 70.9   0.4
Gorter - Wilson 11/20/19 2315 50.7   5.7 44.8   1.6 80   13 E | 97 2.9   1.7 4.9   1.8 0.00 0.00 40.8   3.4 71.7   0.7
Hood (HOD) 11/20/19 2315 50.2   3.7 45.2   0.4 83   11 ENE | 68 1.8   1.1 3.9   1.8 0.00 0.00 44.0   2.3 71.0   1.3
Courtland-C3 11/20/19 2315 49.0   1.1 43.6   1.4 81   8 NE | 34 2.7   0.1 3.7   1.5 0.00 0.00 42.0   4.9 70.0   1.1
Pacific Fruit 11/20/19 2315 48.5   0.9 43.0   3.2 81   8 NNE | 25 3.7   1.2 5.6   0.5 0.00 0.00 45.8   2.0 72.2   1.3
Ryer Island South (RIS) 11/20/19 2315 38.6   15.5 33.3   12.8 81   7 SSE | 154 0.2   4.3 2.1   5.8 0.00 0.00 37.0   8.6 70.2   2.4
Guard Rd (Lodi WSW) 11/20/19 2315 51.3   5.4 45.7   1.6 81   12 ESE | 114 5.0   3.8 8.8   5.5 0.00 0.00 41.5   3.6 71.5   2.2
Claussen 11/20/19 2315 51.6   3.7 45.6   3.5 80   0 SE | 139 4.0   1.7 9.8   0.6 0.00 0.00 46.6   1.5 71.8   2.9
Max     51.7 45.7 85 - 5.0 9.8 0.00 0.00 46.6 72.3
Avg     48.7 43.1 81 - 3.0 5.5 0.00 - - -
Min     38.6 33.3 76 - 0.2 2.1 0.00 0.00 37.0 70.0

Lodi Central

Latest Observations

15 Minute Data | America/Los_Angeles
as of 11/20/19 11:21 PM PST
Station Date Time Temp (°F) Dew Pt (°F) RH (%) Wind Dir (°) Wind Spd (mph) Wind Gust (mph) Latest Rain (In) Daily Rain (In) Daily Min Temp (°F) Daily Max Temp (°F)
Galt West (GAW) 11/20/19 2315 52.1   5.2 45.4   1.4 78   12 ESE | 102 3.5   1.7 6.5   2.6 0.00 0.00 40.7   6.0 71.2   0.6
Valley Oak 11/20/19 2315 50.8   6.5 44.5   2.4 79   13 ESE | 113 3.1   1.9 6.1   3.3 0.00 0.00 41.6   2.4 72.1   2.5
Thornton 11/20/19 2315 51.8   6.5 43.8   2.9 74   10 ESE | 106 4.2   3.6 7.1   3.4 0.00 0.00 41.8   3.2 71.4   1.0
Kost Rd 11/20/19 2315 52.2   5.5 46.5   1.6 81   12 ESE | 111 5.8   4.7 8.9   5.2 0.00 0.00 42.4   4.0 72.5   3.2
DeVries Road-North 11/20/19 2315 52.0   3.5 45.3   0.3 78   12 ESE | 104 3.4   2.4 6.3   1.9 0.00 0.00 41.7   4.6 72.8   2.8
Lodi (LangeTwins) 11/20/19 2315 51.1   6.4 46.0   3.0 82   11 ESE | 109 3.6   3.6 7.4   7.4 0.00 0.00 39.8   4.1 72.1   3.0
Acampo (ACP) 11/20/19 2315 52.1   5.1 44.6   0.2 75   15 ESE | 117 5.2   4.0 10.8   7.4 0.00 0.00 37.4   8.3 71.7   2.8
Lodi West (MDW) 11/20/19 2315 51.8   4.2 45.5   0.1 79   13 ESE | 119 3.7   2.3 8.6   5.7 0.00 0.00 43.4   3.1 71.2   1.8
Max     52.2 46.5 82 - 5.8 10.8 0.00 0.00 43.4 72.8
Avg     51.7 45.2 78 - 4.1 7.7 0.00 - - -
Min     50.8 43.8 74 - 3.1 6.1 0.00 0.00 37.4 71.2

Latest Observation

19 Stations

15 Minute Data
as of 11/20/19 11:21 PM PST
Station Date Time Temp (°F) Dew Pt (°F) RH (%) Wind Spd (mph) Wind Dir (°) Wind Gust (mph) Latest Rain (In) Daily Rain (In) Daily Min Temp (°F) Daily Max Temp (°F)
Borden Hills 11/20/19 2315 54.1   5.5 46.9   0.1 77   17 3.5   0.7 SSE | 149 5.9   1.5 0.00 0.00 41.2   5.1 72.8   1.8
Collegeville (COL) 11/20/19 2315 50.4   1.4 44.8   0.7 81   7 4.8   3.9 SE | 131 8.8   7.1 0.00 0.00 41.7   2.8 71.4   2.1
Galt-East (EGT) 11/20/19 2315 52.8   4.4 45.2   0.8 75   16 4.1   3.1 SE | 127 9.0   6.4 0.00 0.00 40.2   5.7 70.7   1.0
Escalon (ESL) 11/20/19 2315 50.8   0.8 46.0   1.3 83   7 3.0   2.5 SE | 135 7.0   4.9 0.00 0.00 44.4   0.3 68.6   1.2
Victor - N (Katusha) 11/20/19 2315 51.1   3.7 43.5   2.9 75   21 5.2   4.2 SE | 134 8.8   6.0 0.00 0.00 41.3   3.6 69.8   1.3
Gilbeau Ranch 11/20/19 2315 52.6   6.0 44.5   0.1 74   19 3.8   3.3 SE | 128 9.4   7.0 0.00 0.00 41.2   4.4 70.5   1.2
Lodi 9/1/19 2315 68.3   2.1 54.6   2.0 61   8 0.0   0.0 N | 0 0.0   0.6 0.00 0.00 54.3   2.9 96.9   0.2
Linden (LIN) 11/20/19 2315 51.1   5.5 45.5   0.7 81   16 3.5   3.4 SE | 130 7.4   6.5 0.00 0.00 39.3   3.6 71.3   2.2
Live Oak (LIV) 11/20/19 2315 51.8   5.1 45.9   1.3 80   12 3.9   3.1 SE | 125 8.4   6.5 0.00 0.00 40.4   4.5 70.7   1.4
Lockeford (LOC) 11/20/19 2315 53.0   6.0 - 0   0 4.0   4.0 SSE | 147 9.6   9.6 0.00 0.00 41.6   3.7 71.1   1.2
Lone Oak-L28 11/20/19 2315 50.9   5.8 44.6   0.8 79   16 7.0   6.8 SE | 134 12.5   11.4 0.00 0.00 34.7   6.6 71.3   3.1
Sheldon (SHL) 11/20/19 2315 44.8   2.3 38.9   5.1 79   9 0.0   1.5 N | 0 0.0   2.7 0.00 0.00 40.3   5.3 72.3   2.3
Sierra Loma-L27 11/20/19 2315 53.1   5.0 46.0   0.1 77   16 4.2   2.7 NE | 42 8.7   3.7 0.00 0.00 40.6   5.2 71.6   0.5
Simmerhorn (SIM) 11/20/19 2315 52.5   4.1 42.9   3.2 70   22 - - - - - 41.0   3.8 70.6   1.8
Sloughhouse (SLH) 11/20/19 2300 40.3   8.3 58.0   2.2 50   0 0.0   0.0 N | 0 0.0   3.8 0.00 0.00 39.3   3.8 70.2   0.2
5 Wells 11/20/19 2315 52.5   6.0 44.9   0.1 75   18 5.5   2.7 ESE | 123 9.8   4.7 0.00 0.00 41.1   4.3 71.3   2.4
Max     54.1 58.0 83 7.0 - 12.5 0.00 0.00 44.4 72.8
Avg     50.8 45.5 70 3.8 - 7.5 0.00 - - -
Min     40.3 38.9 0 0.0 - 0.0 0.00 0.00 34.7 68.6